sensor_id;sensor_type;location;lat;lon;timestamp;temperature;humidity
11025;DHT22;22890;51.820;8.682;2023-04-07T00:04:00;8.40;99.90
11025;DHT22;22890;51.820;8.682;2023-04-07T00:23:38;8.20;99.90
11025;DHT22;22890;51.820;8.682;2023-04-07T00:35:53;8.40;99.90
11025;DHT22;22890;51.820;8.682;2023-04-07T00:38:20;8.40;99.90
11025;DHT22;22890;51.820;8.682;2023-04-07T00:45:41;6.80;99.90
11025;DHT22;22890;51.820;8.682;2023-04-07T00:53:04;8.30;99.90
11025;DHT22;22890;51.820;8.682;2023-04-07T00:57:58;8.30;99.90
11025;DHT22;22890;51.820;8.682;2023-04-07T01:00:26;8.30;99.90
11025;DHT22;22890;51.820;8.682;2023-04-07T01:03:00;8.40;99.90
11025;DHT22;22890;51.820;8.682;2023-04-07T01:05:45;8.30;99.90
11025;DHT22;22890;51.820;8.682;2023-04-07T01:08:32;8.30;99.90
11025;DHT22;22890;51.820;8.682;2023-04-07T01:11:09;8.30;99.90
11025;DHT22;22890;51.820;8.682;2023-04-07T01:13:42;8.20;99.90
11025;DHT22;22890;51.820;8.682;2023-04-07T01:16:48;8.20;99.90
11025;DHT22;22890;51.820;8.682;2023-04-07T01:19:33;8.10;99.90
11025;DHT22;22890;51.820;8.682;2023-04-07T01:22:09;8.10;99.90
11025;DHT22;22890;51.820;8.682;2023-04-07T01:30:22;8.10;99.90
11025;DHT22;22890;51.820;8.682;2023-04-07T01:32:51;8.10;99.90
11025;DHT22;22890;51.820;8.682;2023-04-07T01:35:20;8.10;99.90
11025;DHT22;22890;51.820;8.682;2023-04-07T01:37:48;8.00;99.90
11025;DHT22;22890;51.820;8.682;2023-04-07T01:42:44;8.00;99.90
11025;DHT22;22890;51.820;8.682;2023-04-07T01:45:11;8.00;99.90
11025;DHT22;22890;51.820;8.682;2023-04-07T01:50:08;8.00;99.90
11025;DHT22;22890;51.820;8.682;2023-04-07T01:52:37;8.00;99.90
11025;DHT22;22890;51.820;8.682;2023-04-07T01:55:06;8.00;99.90
11025;DHT22;22890;51.820;8.682;2023-04-07T02:00:11;7.90;99.90
11025;DHT22;22890;51.820;8.682;2023-04-07T02:02:43;8.00;99.90
11025;DHT22;22890;51.820;8.682;2023-04-07T02:05:12;8.00;99.90
11025;DHT22;22890;51.820;8.682;2023-04-07T02:07:45;8.00;99.90
11025;DHT22;22890;51.820;8.682;2023-04-07T02:10:16;7.90;99.90
11025;DHT22;22890;51.820;8.682;2023-04-07T02:12:46;8.00;99.90
11025;DHT22;22890;51.820;8.682;2023-04-07T02:15:18;8.00;99.90
11025;DHT22;22890;51.820;8.682;2023-04-07T02:17:48;8.00;99.90
11025;DHT22;22890;51.820;8.682;2023-04-07T02:20:17;8.00;99.90
11025;DHT22;22890;51.820;8.682;2023-04-07T02:22:45;8.10;99.90
11025;DHT22;22890;51.820;8.682;2023-04-07T02:25:26;8.10;99.90
11025;DHT22;22890;51.820;8.682;2023-04-07T02:27:54;8.10;99.90
11025;DHT22;22890;51.820;8.682;2023-04-07T02:35:17;8.10;99.90
11025;DHT22;22890;51.820;8.682;2023-04-07T02:37:45;8.10;99.90
11025;DHT22;22890;51.820;8.682;2023-04-07T02:45:07;8.10;99.90
11025;DHT22;22890;51.820;8.682;2023-04-07T02:47:36;8.10;99.90
11025;DHT22;22890;51.820;8.682;2023-04-07T03:00:03;8.00;99.90
11025;DHT22;22890;51.820;8.682;2023-04-07T03:02:46;7.90;99.90
11025;DHT22;22890;51.820;8.682;2023-04-07T03:12:36;7.90;99.90
11025;DHT22;22890;51.820;8.682;2023-04-07T03:15:03;8.00;99.90
11025;DHT22;22890;51.820;8.682;2023-04-07T03:17:30;8.00;99.90
11025;DHT22;22890;51.820;8.682;2023-04-07T03:32:17;7.90;99.90
11025;DHT22;22890;51.820;8.682;2023-04-07T04:12:18;7.70;99.90
11025;DHT22;22890;51.820;8.682;2023-04-07T04:19:51;7.60;99.90
11025;DHT22;22890;51.820;8.682;2023-04-07T04:22:24;7.70;99.90
11025;DHT22;22890;51.820;8.682;2023-04-07T05:12:19;7.70;99.90
11025;DHT22;22890;51.820;8.682;2023-04-07T05:14:53;7.70;99.90
11025;DHT22;22890;51.820;8.682;2023-04-07T05:19:47;7.80;99.90
11025;DHT22;22890;51.820;8.682;2023-04-07T05:22:23;7.70;99.90
11025;DHT22;22890;51.820;8.682;2023-04-07T05:44:44;7.70;99.90
11025;DHT22;22890;51.820;8.682;2023-04-07T05:49:40;7.70;99.90
11025;DHT22;22890;51.820;8.682;2023-04-07T05:52:12;7.60;99.90
11025;DHT22;22890;51.820;8.682;2023-04-07T06:12:02;7.70;99.90
11025;DHT22;22890;51.820;8.682;2023-04-07T06:26:51;7.50;99.90
11025;DHT22;22890;51.820;8.682;2023-04-07T06:49:01;8.00;99.90
11025;DHT22;22890;51.820;8.682;2023-04-07T06:53:55;8.20;99.90
11025;DHT22;22890;51.820;8.682;2023-04-07T07:06:10;8.40;99.90
11025;DHT22;22890;51.820;8.682;2023-04-07T07:11:04;8.40;99.90
11025;DHT22;22890;51.820;8.682;2023-04-07T07:40:31;8.70;99.90
11025;DHT22;22890;51.820;8.682;2023-04-07T08:07:34;9.10;99.90
11025;DHT22;22890;51.820;8.682;2023-04-07T08:41:56;9.40;99.90
11025;DHT22;22890;51.820;8.682;2023-04-07T08:44:24;9.40;99.90
11025;DHT22;22890;51.820;8.682;2023-04-07T08:46:56;9.30;99.90
11025;DHT22;22890;51.820;8.682;2023-04-07T08:49:23;9.50;99.90
11025;DHT22;22890;51.820;8.682;2023-04-07T08:51:53;8.00;99.90
11025;DHT22;22890;51.820;8.682;2023-04-07T09:01:47;9.60;99.90
11025;DHT22;22890;51.820;8.682;2023-04-07T09:06:42;9.50;99.90
11025;DHT22;22890;51.820;8.682;2023-04-07T09:11:38;9.70;99.90
11025;DHT22;22890;51.820;8.682;2023-04-07T09:14:05;9.40;99.90
11025;DHT22;22890;51.820;8.682;2023-04-07T09:16:33;9.70;99.90
11025;DHT22;22890;51.820;8.682;2023-04-07T09:21:46;9.80;99.90
11025;DHT22;22890;51.820;8.682;2023-04-07T09:27:07;9.80;99.90
11025;DHT22;22890;51.820;8.682;2023-04-07T09:29:33;9.90;99.90
11025;DHT22;22890;51.820;8.682;2023-04-07T09:34:31;10.00;99.90
11025;DHT22;22890;51.820;8.682;2023-04-07T09:39:26;10.00;99.90
11025;DHT22;22890;51.820;8.682;2023-04-07T09:44:21;10.10;99.90
11025;DHT22;22890;51.820;8.682;2023-04-07T09:46:58;10.00;99.90
11025;DHT22;22890;51.820;8.682;2023-04-07T09:49:25;9.80;99.90
11025;DHT22;22890;51.820;8.682;2023-04-07T09:54:33;10.10;99.90
11025;DHT22;22890;51.820;8.682;2023-04-07T09:57:01;10.10;99.90
11025;DHT22;22890;51.820;8.682;2023-04-07T09:59:29;10.20;99.90
11025;DHT22;22890;51.820;8.682;2023-04-07T10:04:24;10.20;99.90
11025;DHT22;22890;51.820;8.682;2023-04-07T10:06:55;10.40;99.90
11025;DHT22;22890;51.820;8.682;2023-04-07T10:09:24;10.40;99.90
11025;DHT22;22890;51.820;8.682;2023-04-07T10:11:53;10.40;99.90
11025;DHT22;22890;51.820;8.682;2023-04-07T10:14:21;10.30;99.90
11025;DHT22;22890;51.820;8.682;2023-04-07T10:19:18;10.20;99.90
11025;DHT22;22890;51.820;8.682;2023-04-07T10:21:48;10.20;99.90
11025;DHT22;22890;51.820;8.682;2023-04-07T10:27:22;10.00;99.90
11025;DHT22;22890;51.820;8.682;2023-04-07T10:29:50;10.20;99.90
11025;DHT22;22890;51.820;8.682;2023-04-07T10:37:22;10.10;99.90
11025;DHT22;22890;51.820;8.682;2023-04-07T10:39:51;10.20;99.90
11025;DHT22;22890;51.820;8.682;2023-04-07T10:45:08;10.40;99.90
11025;DHT22;22890;51.820;8.682;2023-04-07T10:53:11;10.60;99.90
11025;DHT22;22890;51.820;8.682;2023-04-07T10:55:39;9.00;99.90
11025;DHT22;22890;51.820;8.682;2023-04-07T11:03:51;9.00;99.90
11025;DHT22;22890;51.820;8.682;2023-04-07T11:08:46;11.10;99.90
11025;DHT22;22890;51.820;8.682;2023-04-07T11:11:19;11.10;99.90
11025;DHT22;22890;51.820;8.682;2023-04-07T11:13:50;11.10;99.90
11025;DHT22;22890;51.820;8.682;2023-04-07T11:16:18;11.20;99.90
11025;DHT22;22890;51.820;8.682;2023-04-07T11:18:46;11.20;99.90
11025;DHT22;22890;51.820;8.682;2023-04-07T11:21:18;11.20;99.90
11025;DHT22;22890;51.820;8.682;2023-04-07T11:23:46;11.20;99.90
11025;DHT22;22890;51.820;8.682;2023-04-07T11:26:14;11.30;99.90
11025;DHT22;22890;51.820;8.682;2023-04-07T11:28:46;11.20;99.90
11025;DHT22;22890;51.820;8.682;2023-04-07T11:31:27;11.30;99.90
11025;DHT22;22890;51.820;8.682;2023-04-07T11:34:01;11.30;99.90
11025;DHT22;22890;51.820;8.682;2023-04-07T11:36:39;11.40;99.90
11025;DHT22;22890;51.820;8.682;2023-04-07T11:39:20;11.40;99.90
11025;DHT22;22890;51.820;8.682;2023-04-07T11:41:48;11.50;99.90
11025;DHT22;22890;51.820;8.682;2023-04-07T11:46:57;11.70;99.90
11025;DHT22;22890;51.820;8.682;2023-04-07T11:49:25;11.70;99.90
11025;DHT22;22890;51.820;8.682;2023-04-07T11:52:03;11.60;99.90
11025;DHT22;22890;51.820;8.682;2023-04-07T11:54:44;12.00;99.90
11025;DHT22;22890;51.820;8.682;2023-04-07T11:57:25;11.90;99.90
11025;DHT22;22890;51.820;8.682;2023-04-07T12:00:06;12.10;99.90
11025;DHT22;22890;51.820;8.682;2023-04-07T12:12:25;12.30;99.90
11025;DHT22;22890;51.820;8.682;2023-04-07T12:17:25;12.20;99.90
11025;DHT22;22890;51.820;8.682;2023-04-07T12:51:47;12.60;99.90
11025;DHT22;22890;51.820;8.682;2023-04-07T13:10:10;12.70;99.90
11025;DHT22;22890;51.820;8.682;2023-04-07T13:15:05;12.90;99.90
11025;DHT22;22890;51.820;8.682;2023-04-07T13:20:03;12.80;99.90
11025;DHT22;22890;51.820;8.682;2023-04-07T13:22:30;12.50;99.90
11025;DHT22;22890;51.820;8.682;2023-04-07T13:24:57;12.40;99.90
11025;DHT22;22890;51.820;8.682;2023-04-07T13:42:13;12.30;99.90
11025;DHT22;22890;51.820;8.682;2023-04-07T13:47:13;12.30;99.90
11025;DHT22;22890;51.820;8.682;2023-04-07T13:49:46;12.40;99.90
11025;DHT22;22890;51.820;8.682;2023-04-07T13:54:40;12.60;99.90
11025;DHT22;22890;51.820;8.682;2023-04-07T13:57:07;12.80;99.90
11025;DHT22;22890;51.820;8.682;2023-04-07T14:09:23;13.00;99.90
11025;DHT22;22890;51.820;8.682;2023-04-07T14:14:16;12.90;99.90
11025;DHT22;22890;51.820;8.682;2023-04-07T14:28:59;12.60;99.90
11025;DHT22;22890;51.820;8.682;2023-04-07T14:46:10;12.50;99.90
11025;DHT22;22890;51.820;8.682;2023-04-07T14:51:12;12.80;99.90
11025;DHT22;22890;51.820;8.682;2023-04-07T14:53:40;12.80;99.90
11025;DHT22;22890;51.820;8.682;2023-04-07T15:13:21;12.90;99.90
11025;DHT22;22890;51.820;8.682;2023-04-07T15:30:34;12.80;99.90
11025;DHT22;22890;51.820;8.682;2023-04-07T15:45:18;13.00;99.90
11025;DHT22;22890;51.820;8.682;2023-04-07T15:50:12;12.80;99.90
11025;DHT22;22890;51.820;8.682;2023-04-07T15:55:06;13.00;99.90
11025;DHT22;22890;51.820;8.682;2023-04-07T16:00:00;13.30;99.90
11025;DHT22;22890;51.820;8.682;2023-04-07T16:02:26;13.20;99.90
11025;DHT22;22890;51.820;8.682;2023-04-07T18:00:28;12.10;99.90
11025;DHT22;22890;51.820;8.682;2023-04-07T18:12:44;11.80;99.90
11025;DHT22;22890;51.820;8.682;2023-04-07T18:20:05;11.80;99.90
11025;DHT22;22890;51.820;8.682;2023-04-07T18:29:57;11.30;99.90
11025;DHT22;22890;51.820;8.682;2023-04-07T18:44:40;10.90;99.90
11025;DHT22;22890;51.820;8.682;2023-04-07T18:59:24;10.50;99.90
11025;DHT22;22890;51.820;8.682;2023-04-07T19:01:52;9.90;99.90
11025;DHT22;22890;51.820;8.682;2023-04-07T19:06:50;10.10;99.90
11025;DHT22;22890;51.820;8.682;2023-04-07T19:14:12;10.00;99.90
11025;DHT22;22890;51.820;8.682;2023-04-07T19:16:39;9.80;99.90
11025;DHT22;22890;51.820;8.682;2023-04-07T19:31:25;9.50;99.90
11025;DHT22;22890;51.820;8.682;2023-04-07T19:33:52;9.50;99.90
11025;DHT22;22890;51.820;8.682;2023-04-07T19:38:46;9.30;99.90
11025;DHT22;22890;51.820;8.682;2023-04-07T19:51:02;8.80;99.90
11025;DHT22;22890;51.820;8.682;2023-04-07T19:56:00;8.50;99.90
11025;DHT22;22890;51.820;8.682;2023-04-07T20:27:56;7.40;99.90
11025;DHT22;22890;51.820;8.682;2023-04-07T20:30:23;7.60;99.90
11025;DHT22;22890;51.820;8.682;2023-04-07T20:37:45;7.30;99.90
11025;DHT22;22890;51.820;8.682;2023-04-07T20:42:38;7.20;99.90
11025;DHT22;22890;51.820;8.682;2023-04-07T20:50:02;6.90;99.90
11025;DHT22;22890;51.820;8.682;2023-04-07T21:02:17;7.00;99.90
11025;DHT22;22890;51.820;8.682;2023-04-07T21:17:01;6.00;99.90
11025;DHT22;22890;51.820;8.682;2023-04-07T21:19:28;6.00;99.90
11025;DHT22;22890;51.820;8.682;2023-04-07T21:21:54;6.10;99.90
11025;DHT22;22890;51.820;8.682;2023-04-07T21:29:15;6.00;99.90
11025;DHT22;22890;51.820;8.682;2023-04-07T21:36:36;5.90;99.90
11025;DHT22;22890;51.820;8.682;2023-04-07T21:41:30;5.80;99.90
11025;DHT22;22890;51.820;8.682;2023-04-07T22:42:52;4.10;99.90
11025;DHT22;22890;51.820;8.682;2023-04-07T22:55:08;3.80;99.90
11025;DHT22;22890;51.820;8.682;2023-04-07T23:00:03;3.70;99.90
11025;DHT22;22890;51.820;8.682;2023-04-07T23:09:52;3.60;99.90
11025;DHT22;22890;51.820;8.682;2023-04-07T23:31:57;3.60;99.90
